Grande Senegal — ICEU — position and weather

sailwx.info

Track history (hours):
 
Tides and Currents Weather Stations Pressure Air Temp Water Temp Dewpoint Dewpoint Depression Visibility Wind Speed Wind Dir Waves Ship Positions

Grande Senegal

Last reported at 2018-Jul-22 18:00 UTC. Time now 2018-Jul-22 18:05 UTC.
Position N 39°15' W 076°35'.

Length 210 m; draft 8.6 m.

Type: Cargo ship. MMSI: 247285500.

Date/timePositionNaut miles runAvg speedWind from/ knotsBaromVisibWave heightAir tempDewpointWater temp
2018-Jul-22 18:00N 39°15' W 076°35'0 0.0
2018-Jul-22 17:30N 39°15' W 076°35'0 0.0
2018-Jul-22 16:57N 39°15' W 076°35'0 0.0
2018-Jul-22 16:30N 39°15' W 076°35'0 0.0
2018-Jul-22 16:00N 39°15' W 076°35'0 0.0
2018-Jul-22 15:00N 39°15' W 076°35'0 0.0
2018-Jul-22 14:30N 39°15' W 076°35'0 0.3
2018-Jul-22 14:00N 39°15' W 076°35'1 2.8
2018-Jul-22 13:30N 39°14' W 076°33'4 8.5
2018-Jul-22 13:01N 39°12' W 076°29'611.6
2018-Jul-22 12:30N 39°08' W 076°24'613.1
2018-Jul-22 12:01N 39°01' W 076°22'815.4
2018-Jul-22 11:30N 38°53' W 076°24'5416.6
2018-Jul-22 08:13N 37°60' W 076°12'  
2018-Jul-16 15:16N 36°03' W 028°37'9417.8
2018-Jul-16 10:00N 36°03' W 026°41'2018.1
2018-Jul-16 08:53N 36°02' W 026°16'1018.0
2018-Jul-16 08:19N 36°03' W 026°03'918.1
2018-Jul-16 07:50N 36°03' W 025°53'617.7
2018-Jul-16 07:31N 36°02' W 025°46'1018.1
2018-Jul-16 06:58N 36°02' W 025°33'817.7
2018-Jul-16 06:30N 36°02' W 025°23'917.6
2018-Jul-16 06:01N 36°02' W 025°13'917.7
2018-Jul-16 05:30N 36°02' W 025°02'917.8
2018-Jul-16 05:00N 36°02' W 024°51'917.6
2018-Jul-16 04:31N 36°02' W 024°40'917.7
2018-Jul-16 04:00N 36°02' W 024°29'917.3
2018-Jul-16 03:30N 36°02' W 024°18'917.7
2018-Jul-16 03:01N 36°02' W 024°07'917.6
2018-Jul-16 02:30N 36°02' W 023°56'2017.6
2018-Jul-16 01:23N 36°02' W 023°32'917.2
2018-Jul-16 00:50N 36°02' W 023°20'83717.5
2018-Jul-14 00:56N 35°58' W 006°05'918.8
2018-Jul-14 00:28N 35°57' W 005°55'1319.1
2018-Jul-13 23:47N 35°57' W 005°39'517.2
2018-Jul-13 23:30N 35°58' W 005°33'816.0
2018-Jul-13 23:00N 36°01' W 005°24'714.5
2018-Jul-13 22:30N 36°02' W 005°15'28617.0
2018-Jul-13 05:39N 37°04' E 000°33'518.4
2018-Jul-13 05:23N 37°05' E 000°38'818.3
2018-Jul-13 04:56N 37°07' E 000°48'1018.2
2018-Jul-13 04:22N 37°10' E 001°01'718.0
2018-Jul-13 04:00N 37°11' E 001°09'918.1
2018-Jul-13 03:30N 37°14' E 001°20'918.0
2018-Jul-13 03:00N 37°16' E 001°31'917.9
2018-Jul-13 02:30N 37°18' E 001°42'918.0
2018-Jul-13 01:59N 37°20' E 001°53'917.7
2018-Jul-13 01:30N 37°23' E 002°03'917.6
2018-Jul-13 01:00N 37°25' E 002°14'917.6
2018-Jul-13 00:29N 37°27' E 002°25'817.5
2018-Jul-13 00:00N 37°29' E 002°35'917.6
2018-Jul-12 23:30N 37°32' E 002°46'1117.9
2018-Jul-12 22:53N 37°34' E 002°60'718.0
2018-Jul-12 22:31N 37°36' E 003°08'918.3
2018-Jul-12 22:00N 37°39' E 003°19'918.9
2018-Jul-12 21:30N 37°41' E 003°31'918.7
2018-Jul-12 21:00N 37°43' E 003°42'918.4
2018-Jul-12 20:30N 37°45' E 003°54'918.2
2018-Jul-12 20:00N 37°48' E 004°05'918.1
2018-Jul-12 19:29N 37°50' E 004°16'917.8
2018-Jul-12 19:00N 37°52' E 004°27'918.1
2018-Jul-12 18:30N 37°55' E 004°38'  
Track history (hours):
 
Tides and Currents Weather Stations Pressure Air Temp Water Temp Dewpoint Dewpoint Depression Visibility Wind Speed Wind Dir Waves Ship Positions

Grande Senegal

Last reported at 2018-Jul-22 18:00 UTC. Time now 2018-Jul-22 18:05 UTC.
Position N 39°15' W 076°35'.

Length 210 m; draft 8.6 m.

Type: Cargo ship. MMSI: 247285500.

Date/timePositionNaut miles runAvg speedWind from/ knotsBaromVisibWave heightAir tempDewpointWater temp
2018-Jul-22 18:00N 39°15' W 076°35'0 0.0
2018-Jul-22 17:30N 39°15' W 076°35'0 0.0
2018-Jul-22 16:57N 39°15' W 076°35'0 0.0
2018-Jul-22 16:30N 39°15' W 076°35'0 0.0
2018-Jul-22 16:00N 39°15' W 076°35'0 0.0
2018-Jul-22 15:00N 39°15' W 076°35'0 0.0
2018-Jul-22 14:30N 39°15' W 076°35'0 0.3
2018-Jul-22 14:00N 39°15' W 076°35'1 2.8
2018-Jul-22 13:30N 39°14' W 076°33'4 8.5
2018-Jul-22 13:01N 39°12' W 076°29'611.6
2018-Jul-22 12:30N 39°08' W 076°24'613.1
2018-Jul-22 12:01N 39°01' W 076°22'815.4
2018-Jul-22 11:30N 38°53' W 076°24'5416.6
2018-Jul-22 08:13N 37°60' W 076°12'  
2018-Jul-16 15:16N 36°03' W 028°37'9417.8
2018-Jul-16 10:00N 36°03' W 026°41'2018.1
2018-Jul-16 08:53N 36°02' W 026°16'1018.0
2018-Jul-16 08:19N 36°03' W 026°03'918.1
2018-Jul-16 07:50N 36°03' W 025°53'617.7
2018-Jul-16 07:31N 36°02' W 025°46'1018.1
2018-Jul-16 06:58N 36°02' W 025°33'817.7
2018-Jul-16 06:30N 36°02' W 025°23'917.6
2018-Jul-16 06:01N 36°02' W 025°13'917.7
2018-Jul-16 05:30N 36°02' W 025°02'917.8
2018-Jul-16 05:00N 36°02' W 024°51'917.6
2018-Jul-16 04:31N 36°02' W 024°40'917.7
2018-Jul-16 04:00N 36°02' W 024°29'917.3
2018-Jul-16 03:30N 36°02' W 024°18'917.7
2018-Jul-16 03:01N 36°02' W 024°07'917.6
2018-Jul-16 02:30N 36°02' W 023°56'2017.6
2018-Jul-16 01:23N 36°02' W 023°32'917.2
2018-Jul-16 00:50N 36°02' W 023°20'83717.5
2018-Jul-14 00:56N 35°58' W 006°05'918.8
2018-Jul-14 00:28N 35°57' W 005°55'1319.1
2018-Jul-13 23:47N 35°57' W 005°39'517.2
2018-Jul-13 23:30N 35°58' W 005°33'816.0
2018-Jul-13 23:00N 36°01' W 005°24'714.5
2018-Jul-13 22:30N 36°02' W 005°15'28617.0
2018-Jul-13 05:39N 37°04' E 000°33'518.4
2018-Jul-13 05:23N 37°05' E 000°38'818.3
2018-Jul-13 04:56N 37°07' E 000°48'1018.2
2018-Jul-13 04:22N 37°10' E 001°01'718.0
2018-Jul-13 04:00N 37°11' E 001°09'918.1
2018-Jul-13 03:30N 37°14' E 001°20'918.0
2018-Jul-13 03:00N 37°16' E 001°31'917.9
2018-Jul-13 02:30N 37°18' E 001°42'918.0
2018-Jul-13 01:59N 37°20' E 001°53'917.7
2018-Jul-13 01:30N 37°23' E 002°03'917.6
2018-Jul-13 01:00N 37°25' E 002°14'917.6
2018-Jul-13 00:29N 37°27' E 002°25'817.5
2018-Jul-13 00:00N 37°29' E 002°35'917.6
2018-Jul-12 23:30N 37°32' E 002°46'1117.9
2018-Jul-12 22:53N 37°34' E 002°60'718.0
2018-Jul-12 22:31N 37°36' E 003°08'918.3
2018-Jul-12 22:00N 37°39' E 003°19'918.9
2018-Jul-12 21:30N 37°41' E 003°31'918.7
2018-Jul-12 21:00N 37°43' E 003°42'918.4
2018-Jul-12 20:30N 37°45' E 003°54'918.2
2018-Jul-12 20:00N 37°48' E 004°05'918.1
2018-Jul-12 19:29N 37°50' E 004°16'917.8
2018-Jul-12 19:00N 37°52' E 004°27'918.1
2018-Jul-12 18:30N 37°55' E 004°38'  

Dump ship's entire track history